sensor_id;sensor_type;location;lat;lon;timestamp;P1;durP1;ratioP1;P2;durP2;ratioP2
11691;SDS011;33659;42.672;23.354;2023-08-20T00:00:29;5.88;;;4.20;;
11691;SDS011;33659;42.672;23.354;2023-08-20T00:02:58;9.90;;;4.72;;
11691;SDS011;33659;42.672;23.354;2023-08-20T00:05:29;7.13;;;4.18;;
11691;SDS011;33659;42.672;23.354;2023-08-20T00:07:56;4.35;;;3.95;;
11691;SDS011;33659;42.672;23.354;2023-08-20T00:10:25;10.23;;;4.30;;
11691;SDS011;33659;42.672;23.354;2023-08-20T00:12:51;6.13;;;4.07;;
11691;SDS011;33659;42.672;23.354;2023-08-20T00:15:18;5.82;;;4.22;;
11691;SDS011;33659;42.672;23.354;2023-08-20T00:17:47;5.13;;;4.35;;
11691;SDS011;33659;42.672;23.354;2023-08-20T00:20:14;6.82;;;4.75;;
11691;SDS011;33659;42.672;23.354;2023-08-20T00:22:42;6.95;;;3.83;;
11691;SDS011;33659;42.672;23.354;2023-08-20T00:25:11;5.05;;;4.00;;
11691;SDS011;33659;42.672;23.354;2023-08-20T00:27:40;6.68;;;4.28;;
11691;SDS011;33659;42.672;23.354;2023-08-20T00:30:07;5.45;;;4.25;;
11691;SDS011;33659;42.672;23.354;2023-08-20T00:32:35;4.85;;;4.18;;
11691;SDS011;33659;42.672;23.354;2023-08-20T00:35:02;7.90;;;4.82;;
11691;SDS011;33659;42.672;23.354;2023-08-20T00:37:30;5.55;;;4.35;;
11691;SDS011;33659;42.672;23.354;2023-08-20T00:39:57;4.72;;;4.30;;
11691;SDS011;33659;42.672;23.354;2023-08-20T00:42:23;4.75;;;4.30;;
11691;SDS011;33659;42.672;23.354;2023-08-20T00:44:53;6.25;;;4.40;;
11691;SDS011;33659;42.672;23.354;2023-08-20T00:47:19;7.88;;;4.32;;
11691;SDS011;33659;42.672;23.354;2023-08-20T00:49:47;6.05;;;4.35;;
11691;SDS011;33659;42.672;23.354;2023-08-20T00:52:14;6.13;;;4.85;;
11691;SDS011;33659;42.672;23.354;2023-08-20T00:54:44;5.85;;;4.75;;
11691;SDS011;33659;42.672;23.354;2023-08-20T00:57:12;6.32;;;4.60;;
11691;SDS011;33659;42.672;23.354;2023-08-20T00:59:39;9.98;;;4.82;;
11691;SDS011;33659;42.672;23.354;2023-08-20T01:02:09;8.10;;;4.82;;
11691;SDS011;33659;42.672;23.354;2023-08-20T01:04:36;5.10;;;4.53;;
11691;SDS011;33659;42.672;23.354;2023-08-20T01:07:04;6.20;;;4.18;;
11691;SDS011;33659;42.672;23.354;2023-08-20T01:09:38;6.05;;;4.80;;
11691;SDS011;33659;42.672;23.354;2023-08-20T01:12:14;5.20;;;4.70;;
11691;SDS011;33659;42.672;23.354;2023-08-20T01:14:43;5.50;;;4.80;;
11691;SDS011;33659;42.672;23.354;2023-08-20T01:17:11;7.45;;;4.60;;
11691;SDS011;33659;42.672;23.354;2023-08-20T01:19:38;6.05;;;4.70;;
11691;SDS011;33659;42.672;23.354;2023-08-20T01:22:09;5.78;;;4.80;;
11691;SDS011;33659;42.672;23.354;2023-08-20T01:24:51;4.65;;;4.25;;
11691;SDS011;33659;42.672;23.354;2023-08-20T01:27:29;5.68;;;4.70;;
11691;SDS011;33659;42.672;23.354;2023-08-20T01:30:09;7.30;;;4.65;;
11691;SDS011;33659;42.672;23.354;2023-08-20T01:32:36;4.82;;;4.30;;
11691;SDS011;33659;42.672;23.354;2023-08-20T01:35:07;5.30;;;4.80;;
11691;SDS011;33659;42.672;23.354;2023-08-20T01:37:35;7.30;;;4.93;;
11691;SDS011;33659;42.672;23.354;2023-08-20T01:40:02;6.07;;;4.93;;
11691;SDS011;33659;42.672;23.354;2023-08-20T01:42:29;4.90;;;4.32;;
11691;SDS011;33659;42.672;23.354;2023-08-20T01:44:56;8.77;;;4.30;;
11691;SDS011;33659;42.672;23.354;2023-08-20T01:47:24;6.00;;;5.13;;
11691;SDS011;33659;42.672;23.354;2023-08-20T01:49:51;7.82;;;4.55;;
11691;SDS011;33659;42.672;23.354;2023-08-20T01:52:17;5.00;;;4.47;;
11691;SDS011;33659;42.672;23.354;2023-08-20T01:54:44;7.47;;;4.45;;
11691;SDS011;33659;42.672;23.354;2023-08-20T01:57:12;5.25;;;4.75;;
11691;SDS011;33659;42.672;23.354;2023-08-20T01:59:39;6.35;;;4.80;;
11691;SDS011;33659;42.672;23.354;2023-08-20T02:02:05;5.53;;;4.97;;
11691;SDS011;33659;42.672;23.354;2023-08-20T02:04:34;7.78;;;4.95;;
11691;SDS011;33659;42.672;23.354;2023-08-20T02:07:00;7.88;;;5.18;;
11691;SDS011;33659;42.672;23.354;2023-08-20T02:09:27;8.30;;;5.30;;
11691;SDS011;33659;42.672;23.354;2023-08-20T02:11:54;6.18;;;5.07;;
11691;SDS011;33659;42.672;23.354;2023-08-20T02:14:20;6.78;;;5.00;;
11691;SDS011;33659;42.672;23.354;2023-08-20T02:16:47;6.75;;;5.05;;
11691;SDS011;33659;42.672;23.354;2023-08-20T02:19:14;9.48;;;5.35;;
11691;SDS011;33659;42.672;23.354;2023-08-20T02:21:42;6.50;;;5.47;;
11691;SDS011;33659;42.672;23.354;2023-08-20T02:24:09;6.85;;;4.90;;
11691;SDS011;33659;42.672;23.354;2023-08-20T02:26:35;6.55;;;5.57;;
11691;SDS011;33659;42.672;23.354;2023-08-20T02:29:02;9.07;;;5.90;;
11691;SDS011;33659;42.672;23.354;2023-08-20T02:31:30;6.47;;;5.35;;
11691;SDS011;33659;42.672;23.354;2023-08-20T02:33:57;8.05;;;5.63;;
11691;SDS011;33659;42.672;23.354;2023-08-20T02:36:24;7.07;;;5.28;;
11691;SDS011;33659;42.672;23.354;2023-08-20T02:38:52;6.43;;;5.35;;
11691;SDS011;33659;42.672;23.354;2023-08-20T02:41:19;6.65;;;5.03;;
11691;SDS011;33659;42.672;23.354;2023-08-20T02:43:45;6.47;;;5.72;;
11691;SDS011;33659;42.672;23.354;2023-08-20T02:46:12;7.85;;;5.32;;
11691;SDS011;33659;42.672;23.354;2023-08-20T02:48:39;8.02;;;5.75;;
11691;SDS011;33659;42.672;23.354;2023-08-20T02:51:06;5.68;;;5.10;;
11691;SDS011;33659;42.672;23.354;2023-08-20T02:53:33;6.82;;;5.13;;
11691;SDS011;33659;42.672;23.354;2023-08-20T02:56:01;7.18;;;6.03;;
11691;SDS011;33659;42.672;23.354;2023-08-20T02:58:28;9.32;;;5.45;;
11691;SDS011;33659;42.672;23.354;2023-08-20T03:00:55;7.90;;;5.53;;
11691;SDS011;33659;42.672;23.354;2023-08-20T03:03:22;5.63;;;4.97;;
11691;SDS011;33659;42.672;23.354;2023-08-20T03:05:49;6.53;;;5.55;;
11691;SDS011;33659;42.672;23.354;2023-08-20T03:08:16;7.05;;;5.43;;
11691;SDS011;33659;42.672;23.354;2023-08-20T03:10:43;8.13;;;5.75;;
11691;SDS011;33659;42.672;23.354;2023-08-20T03:13:11;7.53;;;6.70;;
11691;SDS011;33659;42.672;23.354;2023-08-20T03:15:39;6.30;;;5.68;;
11691;SDS011;33659;42.672;23.354;2023-08-20T03:18:06;7.90;;;5.57;;
11691;SDS011;33659;42.672;23.354;2023-08-20T03:20:33;7.82;;;5.78;;
11691;SDS011;33659;42.672;23.354;2023-08-20T03:23:00;6.18;;;5.43;;
11691;SDS011;33659;42.672;23.354;2023-08-20T03:25:27;9.60;;;5.50;;
11691;SDS011;33659;42.672;23.354;2023-08-20T03:27:53;6.68;;;5.22;;
11691;SDS011;33659;42.672;23.354;2023-08-20T03:30:21;6.60;;;5.03;;
11691;SDS011;33659;42.672;23.354;2023-08-20T03:32:48;5.75;;;5.15;;
11691;SDS011;33659;42.672;23.354;2023-08-20T03:35:15;6.90;;;5.47;;
11691;SDS011;33659;42.672;23.354;2023-08-20T03:37:42;9.55;;;6.57;;
11691;SDS011;33659;42.672;23.354;2023-08-20T03:40:09;11.50;;;6.30;;
11691;SDS011;33659;42.672;23.354;2023-08-20T03:42:36;6.30;;;5.10;;
11691;SDS011;33659;42.672;23.354;2023-08-20T03:45:03;7.95;;;5.65;;
11691;SDS011;33659;42.672;23.354;2023-08-20T03:47:31;11.55;;;5.88;;
11691;SDS011;33659;42.672;23.354;2023-08-20T03:49:58;9.52;;;6.10;;
11691;SDS011;33659;42.672;23.354;2023-08-20T03:52:25;10.82;;;5.60;;
11691;SDS011;33659;42.672;23.354;2023-08-20T03:54:52;8.57;;;5.40;;
11691;SDS011;33659;42.672;23.354;2023-08-20T03:57:18;9.13;;;5.30;;
11691;SDS011;33659;42.672;23.354;2023-08-20T03:59:45;8.63;;;5.32;;
11691;SDS011;33659;42.672;23.354;2023-08-20T04:02:12;8.52;;;5.70;;
11691;SDS011;33659;42.672;23.354;2023-08-20T04:04:41;13.82;;;6.90;;
11691;SDS011;33659;42.672;23.354;2023-08-20T04:07:07;9.85;;;5.60;;
11691;SDS011;33659;42.672;23.354;2023-08-20T04:09:34;10.30;;;6.00;;
11691;SDS011;33659;42.672;23.354;2023-08-20T04:12:01;9.68;;;6.00;;
11691;SDS011;33659;42.672;23.354;2023-08-20T04:14:29;7.00;;;5.63;;
11691;SDS011;33659;42.672;23.354;2023-08-20T04:16:58;9.02;;;5.80;;
11691;SDS011;33659;42.672;23.354;2023-08-20T04:19:25;7.03;;;5.40;;
11691;SDS011;33659;42.672;23.354;2023-08-20T04:21:53;6.57;;;5.53;;
11691;SDS011;33659;42.672;23.354;2023-08-20T04:24:20;8.60;;;6.18;;
11691;SDS011;33659;42.672;23.354;2023-08-20T04:26:47;6.72;;;5.32;;
11691;SDS011;33659;42.672;23.354;2023-08-20T04:29:13;7.63;;;5.72;;
11691;SDS011;33659;42.672;23.354;2023-08-20T04:31:41;7.20;;;5.88;;
11691;SDS011;33659;42.672;23.354;2023-08-20T04:34:08;7.75;;;6.13;;
11691;SDS011;33659;42.672;23.354;2023-08-20T04:36:35;7.63;;;6.20;;
11691;SDS011;33659;42.672;23.354;2023-08-20T04:39:03;8.43;;;6.40;;
11691;SDS011;33659;42.672;23.354;2023-08-20T04:41:30;6.40;;;5.60;;
11691;SDS011;33659;42.672;23.354;2023-08-20T04:43:57;6.95;;;5.63;;
11691;SDS011;33659;42.672;23.354;2023-08-20T04:46:23;8.45;;;5.72;;
11691;SDS011;33659;42.672;23.354;2023-08-20T04:48:50;5.60;;;4.97;;
11691;SDS011;33659;42.672;23.354;2023-08-20T04:51:17;8.73;;;5.40;;
11691;SDS011;33659;42.672;23.354;2023-08-20T04:53:44;7.13;;;5.15;;
11691;SDS011;33659;42.672;23.354;2023-08-20T04:56:13;13.18;;;6.05;;
11691;SDS011;33659;42.672;23.354;2023-08-20T04:58:40;6.30;;;4.85;;
11691;SDS011;33659;42.672;23.354;2023-08-20T05:01:07;9.20;;;5.78;;
11691;SDS011;33659;42.672;23.354;2023-08-20T05:03:34;7.40;;;5.35;;
11691;SDS011;33659;42.672;23.354;2023-08-20T05:06:00;8.27;;;5.95;;
11691;SDS011;33659;42.672;23.354;2023-08-20T05:08:28;7.68;;;5.45;;
11691;SDS011;33659;42.672;23.354;2023-08-20T05:10:54;8.57;;;5.07;;
11691;SDS011;33659;42.672;23.354;2023-08-20T05:13:23;7.30;;;5.63;;
11691;SDS011;33659;42.672;23.354;2023-08-20T05:15:49;7.78;;;5.63;;
11691;SDS011;33659;42.672;23.354;2023-08-20T05:18:16;9.80;;;6.22;;
11691;SDS011;33659;42.672;23.354;2023-08-20T05:20:43;8.95;;;5.95;;
11691;SDS011;33659;42.672;23.354;2023-08-20T05:23:10;11.18;;;6.85;;
11691;SDS011;33659;42.672;23.354;2023-08-20T05:25:36;11.77;;;6.50;;
11691;SDS011;33659;42.672;23.354;2023-08-20T05:28:03;6.78;;;5.82;;
11691;SDS011;33659;42.672;23.354;2023-08-20T05:30:31;7.32;;;5.82;;
11691;SDS011;33659;42.672;23.354;2023-08-20T05:32:58;9.90;;;6.88;;
11691;SDS011;33659;42.672;23.354;2023-08-20T05:35:25;8.70;;;5.90;;
11691;SDS011;33659;42.672;23.354;2023-08-20T05:37:52;10.02;;;6.35;;
11691;SDS011;33659;42.672;23.354;2023-08-20T05:40:18;10.20;;;6.10;;
11691;SDS011;33659;42.672;23.354;2023-08-20T05:42:45;8.65;;;6.53;;
11691;SDS011;33659;42.672;23.354;2023-08-20T05:45:12;10.23;;;6.68;;
11691;SDS011;33659;42.672;23.354;2023-08-20T05:47:40;8.27;;;6.95;;
11691;SDS011;33659;42.672;23.354;2023-08-20T05:50:07;10.45;;;6.63;;
11691;SDS011;33659;42.672;23.354;2023-08-20T05:52:34;11.82;;;6.13;;
11691;SDS011;33659;42.672;23.354;2023-08-20T05:55:01;8.70;;;6.75;;
11691;SDS011;33659;42.672;23.354;2023-08-20T05:57:29;11.40;;;6.35;;
11691;SDS011;33659;42.672;23.354;2023-08-20T05:59:55;8.90;;;6.47;;
11691;SDS011;33659;42.672;23.354;2023-08-20T06:02:22;11.80;;;6.22;;
11691;SDS011;33659;42.672;23.354;2023-08-20T06:04:50;9.93;;;6.32;;
11691;SDS011;33659;42.672;23.354;2023-08-20T06:07:17;9.68;;;6.47;;
11691;SDS011;33659;42.672;23.354;2023-08-20T06:09:44;9.05;;;6.60;;
11691;SDS011;33659;42.672;23.354;2023-08-20T06:12:11;8.65;;;6.82;;
11691;SDS011;33659;42.672;23.354;2023-08-20T06:14:37;8.75;;;6.70;;
11691;SDS011;33659;42.672;23.354;2023-08-20T06:17:04;9.05;;;6.10;;
11691;SDS011;33659;42.672;23.354;2023-08-20T06:19:31;8.00;;;6.22;;
11691;SDS011;33659;42.672;23.354;2023-08-20T06:21:59;8.02;;;6.03;;
11691;SDS011;33659;42.672;23.354;2023-08-20T06:24:26;8.35;;;5.93;;
11691;SDS011;33659;42.672;23.354;2023-08-20T06:26:52;7.45;;;5.82;;
11691;SDS011;33659;42.672;23.354;2023-08-20T06:29:19;7.18;;;5.85;;
11691;SDS011;33659;42.672;23.354;2023-08-20T06:31:47;6.68;;;5.50;;
11691;SDS011;33659;42.672;23.354;2023-08-20T06:34:13;7.10;;;6.40;;
11691;SDS011;33659;42.672;23.354;2023-08-20T06:36:40;10.05;;;5.72;;
11691;SDS011;33659;42.672;23.354;2023-08-20T06:39:08;7.10;;;5.35;;
11691;SDS011;33659;42.672;23.354;2023-08-20T06:41:36;11.75;;;5.72;;
11691;SDS011;33659;42.672;23.354;2023-08-20T06:44:03;8.15;;;5.88;;
11691;SDS011;33659;42.672;23.354;2023-08-20T06:46:30;7.95;;;5.82;;
11691;SDS011;33659;42.672;23.354;2023-08-20T06:48:56;9.30;;;6.00;;
11691;SDS011;33659;42.672;23.354;2023-08-20T06:51:23;10.10;;;6.13;;
11691;SDS011;33659;42.672;23.354;2023-08-20T06:53:50;9.23;;;5.80;;
11691;SDS011;33659;42.672;23.354;2023-08-20T06:56:18;7.80;;;5.68;;
11691;SDS011;33659;42.672;23.354;2023-08-20T06:58:45;7.22;;;5.68;;
11691;SDS011;33659;42.672;23.354;2023-08-20T07:01:12;10.27;;;5.75;;
11691;SDS011;33659;42.672;23.354;2023-08-20T07:03:39;14.05;;;6.28;;
11691;SDS011;33659;42.672;23.354;2023-08-20T07:06:09;7.25;;;5.40;;
11691;SDS011;33659;42.672;23.354;2023-08-20T07:08:36;9.15;;;5.68;;
11691;SDS011;33659;42.672;23.354;2023-08-20T07:11:04;8.93;;;5.05;;
11691;SDS011;33659;42.672;23.354;2023-08-20T07:13:32;7.70;;;5.50;;
11691;SDS011;33659;42.672;23.354;2023-08-20T07:15:59;6.75;;;5.88;;
11691;SDS011;33659;42.672;23.354;2023-08-20T07:18:26;7.03;;;5.63;;
11691;SDS011;33659;42.672;23.354;2023-08-20T07:20:54;8.52;;;5.32;;
11691;SDS011;33659;42.672;23.354;2023-08-20T07:23:21;5.97;;;4.82;;
11691;SDS011;33659;42.672;23.354;2023-08-20T07:25:48;7.97;;;4.88;;
11691;SDS011;33659;42.672;23.354;2023-08-20T07:28:17;6.57;;;4.47;;
11691;SDS011;33659;42.672;23.354;2023-08-20T07:31:06;9.68;;;4.65;;
11691;SDS011;33659;42.672;23.354;2023-08-20T07:33:33;5.20;;;4.55;;
11691;SDS011;33659;42.672;23.354;2023-08-20T07:35:59;5.15;;;4.60;;
11691;SDS011;33659;42.672;23.354;2023-08-20T07:38:26;4.90;;;4.32;;
11691;SDS011;33659;42.672;23.354;2023-08-20T07:40:53;7.78;;;4.28;;
11691;SDS011;33659;42.672;23.354;2023-08-20T07:43:19;8.25;;;4.75;;
11691;SDS011;33659;42.672;23.354;2023-08-20T07:45:46;7.30;;;4.68;;
11691;SDS011;33659;42.672;23.354;2023-08-20T07:48:14;6.63;;;4.22;;
11691;SDS011;33659;42.672;23.354;2023-08-20T07:50:41;5.10;;;4.38;;
11691;SDS011;33659;42.672;23.354;2023-08-20T07:53:08;5.60;;;4.05;;
11691;SDS011;33659;42.672;23.354;2023-08-20T07:55:35;5.93;;;4.38;;
11691;SDS011;33659;42.672;23.354;2023-08-20T07:58:02;6.00;;;4.35;;
11691;SDS011;33659;42.672;23.354;2023-08-20T08:00:28;5.22;;;3.83;;
11691;SDS011;33659;42.672;23.354;2023-08-20T08:02:55;8.55;;;4.55;;
11691;SDS011;33659;42.672;23.354;2023-08-20T08:05:23;8.57;;;4.70;;
11691;SDS011;33659;42.672;23.354;2023-08-20T08:07:50;5.25;;;4.03;;
11691;SDS011;33659;42.672;23.354;2023-08-20T08:10:17;7.10;;;4.53;;
11691;SDS011;33659;42.672;23.354;2023-08-20T08:12:44;4.05;;;3.65;;
11691;SDS011;33659;42.672;23.354;2023-08-20T08:15:11;4.90;;;4.45;;
11691;SDS011;33659;42.672;23.354;2023-08-20T08:17:38;4.65;;;4.20;;
11691;SDS011;33659;42.672;23.354;2023-08-20T08:20:05;8.88;;;4.25;;
11691;SDS011;33659;42.672;23.354;2023-08-20T08:22:34;5.18;;;4.35;;
11691;SDS011;33659;42.672;23.354;2023-08-20T08:25:00;5.95;;;4.03;;
11691;SDS011;33659;42.672;23.354;2023-08-20T08:27:27;5.80;;;4.28;;
11691;SDS011;33659;42.672;23.354;2023-08-20T08:29:54;8.02;;;3.95;;
11691;SDS011;33659;42.672;23.354;2023-08-20T08:32:21;6.40;;;4.38;;
11691;SDS011;33659;42.672;23.354;2023-08-20T08:34:47;6.80;;;4.40;;
11691;SDS011;33659;42.672;23.354;2023-08-20T08:37:14;4.30;;;3.78;;
11691;SDS011;33659;42.672;23.354;2023-08-20T08:39:42;6.10;;;4.30;;
11691;SDS011;33659;42.672;23.354;2023-08-20T08:42:09;6.57;;;3.60;;
11691;SDS011;33659;42.672;23.354;2023-08-20T08:44:37;4.05;;;3.65;;
11691;SDS011;33659;42.672;23.354;2023-08-20T08:47:04;3.65;;;3.35;;
11691;SDS011;33659;42.672;23.354;2023-08-20T08:49:32;4.05;;;3.50;;
11691;SDS011;33659;42.672;23.354;2023-08-20T08:52:02;3.33;;;3.00;;
11691;SDS011;33659;42.672;23.354;2023-08-20T08:54:32;3.60;;;3.30;;
11691;SDS011;33659;42.672;23.354;2023-08-20T08:57:01;6.25;;;3.60;;
11691;SDS011;33659;42.672;23.354;2023-08-20T08:59:27;5.97;;;3.17;;
11691;SDS011;33659;42.672;23.354;2023-08-20T09:01:54;5.40;;;3.47;;
11691;SDS011;33659;42.672;23.354;2023-08-20T09:04:22;6.00;;;4.20;;
11691;SDS011;33659;42.672;23.354;2023-08-20T09:06:50;3.75;;;3.30;;
11691;SDS011;33659;42.672;23.354;2023-08-20T09:09:18;3.95;;;2.75;;
11691;SDS011;33659;42.672;23.354;2023-08-20T09:11:45;3.63;;;3.22;;
11691;SDS011;33659;42.672;23.354;2023-08-20T09:14:21;3.70;;;3.17;;
11691;SDS011;33659;42.672;23.354;2023-08-20T09:16:53;5.57;;;3.22;;
11691;SDS011;33659;42.672;23.354;2023-08-20T09:19:21;3.80;;;3.20;;
11691;SDS011;33659;42.672;23.354;2023-08-20T09:21:48;7.57;;;3.35;;
11691;SDS011;33659;42.672;23.354;2023-08-20T09:24:19;5.10;;;3.42;;
11691;SDS011;33659;42.672;23.354;2023-08-20T09:26:56;6.75;;;3.55;;
11691;SDS011;33659;42.672;23.354;2023-08-20T09:29:24;5.40;;;3.40;;
11691;SDS011;33659;42.672;23.354;2023-08-20T09:31:51;3.67;;;3.30;;
11691;SDS011;33659;42.672;23.354;2023-08-20T09:34:32;5.97;;;3.45;;
11691;SDS011;33659;42.672;23.354;2023-08-20T09:37:03;5.20;;;2.85;;
11691;SDS011;33659;42.672;23.354;2023-08-20T09:39:29;3.95;;;3.28;;
11691;SDS011;33659;42.672;23.354;2023-08-20T09:41:56;3.45;;;3.15;;
11691;SDS011;33659;42.672;23.354;2023-08-20T09:44:26;5.85;;;3.05;;
11691;SDS011;33659;42.672;23.354;2023-08-20T09:46:58;3.55;;;3.25;;
11691;SDS011;33659;42.672;23.354;2023-08-20T09:49:26;4.18;;;3.20;;
11691;SDS011;33659;42.672;23.354;2023-08-20T09:51:56;4.00;;;2.67;;
11691;SDS011;33659;42.672;23.354;2023-08-20T09:54:26;3.72;;;2.80;;
11691;SDS011;33659;42.672;23.354;2023-08-20T09:57:01;4.40;;;2.90;;
11691;SDS011;33659;42.672;23.354;2023-08-20T09:59:32;3.00;;;2.70;;
11691;SDS011;33659;42.672;23.354;2023-08-20T10:02:01;2.45;;;2.25;;
11691;SDS011;33659;42.672;23.354;2023-08-20T10:04:28;3.63;;;2.60;;
11691;SDS011;33659;42.672;23.354;2023-08-20T10:06:56;4.45;;;2.80;;
11691;SDS011;33659;42.672;23.354;2023-08-20T10:09:24;3.60;;;2.92;;
11691;SDS011;33659;42.672;23.354;2023-08-20T10:11:52;3.72;;;2.85;;
11691;SDS011;33659;42.672;23.354;2023-08-20T10:14:19;2.60;;;2.40;;
11691;SDS011;33659;42.672;23.354;2023-08-20T10:16:47;4.30;;;2.72;;
11691;SDS011;33659;42.672;23.354;2023-08-20T10:19:15;3.80;;;2.78;;
11691;SDS011;33659;42.672;23.354;2023-08-20T10:21:43;4.55;;;2.60;;
11691;SDS011;33659;42.672;23.354;2023-08-20T10:24:12;5.07;;;3.10;;
11691;SDS011;33659;42.672;23.354;2023-08-20T10:26:45;3.42;;;3.08;;
11691;SDS011;33659;42.672;23.354;2023-08-20T10:32:03;4.13;;;2.50;;
11691;SDS011;33659;42.672;23.354;2023-08-20T10:34:33;4.40;;;2.55;;
11691;SDS011;33659;42.672;23.354;2023-08-20T10:37:03;4.13;;;2.20;;
11691;SDS011;33659;42.672;23.354;2023-08-20T10:39:34;3.13;;;2.55;;
11691;SDS011;33659;42.672;23.354;2023-08-20T10:45:01;3.65;;;2.45;;
11691;SDS011;33659;42.672;23.354;2023-08-20T10:47:40;3.78;;;2.67;;
11691;SDS011;33659;42.672;23.354;2023-08-20T10:50:08;3.20;;;2.90;;
11691;SDS011;33659;42.672;23.354;2023-08-20T10:52:38;3.55;;;2.88;;
11691;SDS011;33659;42.672;23.354;2023-08-20T10:55:06;3.47;;;2.72;;
11691;SDS011;33659;42.672;23.354;2023-08-20T10:57:34;3.40;;;2.83;;
11691;SDS011;33659;42.672;23.354;2023-08-20T11:00:01;3.10;;;2.63;;
11691;SDS011;33659;42.672;23.354;2023-08-20T11:02:35;4.50;;;2.72;;
11691;SDS011;33659;42.672;23.354;2023-08-20T11:05:03;4.75;;;2.83;;
11691;SDS011;33659;42.672;23.354;2023-08-20T11:07:42;9.15;;;2.95;;
11691;SDS011;33659;42.672;23.354;2023-08-20T11:10:11;3.25;;;2.95;;
11691;SDS011;33659;42.672;23.354;2023-08-20T11:12:39;3.00;;;2.60;;
11691;SDS011;33659;42.672;23.354;2023-08-20T11:15:07;3.15;;;2.63;;
11691;SDS011;33659;42.672;23.354;2023-08-20T11:17:41;3.50;;;2.80;;
11691;SDS011;33659;42.672;23.354;2023-08-20T11:20:10;3.03;;;2.83;;
11691;SDS011;33659;42.672;23.354;2023-08-20T11:22:38;3.55;;;3.00;;
11691;SDS011;33659;42.672;23.354;2023-08-20T11:25:06;3.38;;;2.67;;
11691;SDS011;33659;42.672;23.354;2023-08-20T11:27:39;2.85;;;2.65;;
11691;SDS011;33659;42.672;23.354;2023-08-20T11:30:07;6.40;;;3.13;;
11691;SDS011;33659;42.672;23.354;2023-08-20T11:32:35;2.92;;;2.58;;
11691;SDS011;33659;42.672;23.354;2023-08-20T11:35:02;3.65;;;2.60;;
11691;SDS011;33659;42.672;23.354;2023-08-20T11:37:31;3.38;;;2.83;;
11691;SDS011;33659;42.672;23.354;2023-08-20T11:39:57;3.60;;;2.80;;
11691;SDS011;33659;42.672;23.354;2023-08-20T11:42:24;3.10;;;2.80;;
11691;SDS011;33659;42.672;23.354;2023-08-20T11:44:54;2.80;;;2.60;;
11691;SDS011;33659;42.672;23.354;2023-08-20T11:47:22;3.33;;;2.90;;
11691;SDS011;33659;42.672;23.354;2023-08-20T11:49:56;6.35;;;3.00;;
11691;SDS011;33659;42.672;23.354;2023-08-20T11:52:31;4.90;;;2.50;;
11691;SDS011;33659;42.672;23.354;2023-08-20T11:54:58;5.30;;;2.85;;
11691;SDS011;33659;42.672;23.354;2023-08-20T11:57:25;5.75;;;2.80;;
11691;SDS011;33659;42.672;23.354;2023-08-20T11:59:52;4.32;;;3.10;;
11691;SDS011;33659;42.672;23.354;2023-08-20T12:02:24;4.80;;;3.13;;
11691;SDS011;33659;42.672;23.354;2023-08-20T12:04:51;3.13;;;2.83;;
11691;SDS011;33659;42.672;23.354;2023-08-20T12:07:18;6.80;;;3.65;;
11691;SDS011;33659;42.672;23.354;2023-08-20T12:09:46;3.10;;;2.80;;
11691;SDS011;33659;42.672;23.354;2023-08-20T12:12:13;3.00;;;2.67;;
11691;SDS011;33659;42.672;23.354;2023-08-20T12:14:41;4.38;;;3.05;;
11691;SDS011;33659;42.672;23.354;2023-08-20T12:17:08;3.35;;;3.03;;
11691;SDS011;33659;42.672;23.354;2023-08-20T12:19:35;3.67;;;3.17;;
11691;SDS011;33659;42.672;23.354;2023-08-20T12:22:02;2.97;;;2.53;;
11691;SDS011;33659;42.672;23.354;2023-08-20T12:24:29;3.80;;;2.75;;
11691;SDS011;33659;42.672;23.354;2023-08-20T12:26:57;5.85;;;3.05;;
11691;SDS011;33659;42.672;23.354;2023-08-20T12:29:24;3.13;;;2.80;;
11691;SDS011;33659;42.672;23.354;2023-08-20T12:31:50;3.40;;;3.10;;
11691;SDS011;33659;42.672;23.354;2023-08-20T12:34:17;3.67;;;3.22;;
11691;SDS011;33659;42.672;23.354;2023-08-20T12:36:44;3.60;;;2.92;;
11691;SDS011;33659;42.672;23.354;2023-08-20T12:39:11;3.35;;;2.80;;
11691;SDS011;33659;42.672;23.354;2023-08-20T12:41:38;3.75;;;2.90;;
11691;SDS011;33659;42.672;23.354;2023-08-20T12:44:06;5.68;;;3.28;;
11691;SDS011;33659;42.672;23.354;2023-08-20T12:46:33;3.30;;;2.80;;
11691;SDS011;33659;42.672;23.354;2023-08-20T12:49:00;2.78;;;2.58;;
11691;SDS011;33659;42.672;23.354;2023-08-20T12:51:27;3.22;;;2.50;;
11691;SDS011;33659;42.672;23.354;2023-08-20T12:53:54;3.65;;;2.88;;
11691;SDS011;33659;42.672;23.354;2023-08-20T12:56:20;3.10;;;2.80;;
11691;SDS011;33659;42.672;23.354;2023-08-20T12:58:47;3.65;;;2.70;;
11691;SDS011;33659;42.672;23.354;2023-08-20T13:01:15;2.67;;;2.47;;
11691;SDS011;33659;42.672;23.354;2023-08-20T13:03:44;3.67;;;2.90;;
11691;SDS011;33659;42.672;23.354;2023-08-20T13:06:11;5.70;;;2.92;;
11691;SDS011;33659;42.672;23.354;2023-08-20T13:08:39;2.80;;;2.60;;
11691;SDS011;33659;42.672;23.354;2023-08-20T13:11:07;5.82;;;3.03;;
11691;SDS011;33659;42.672;23.354;2023-08-20T13:13:36;2.90;;;2.60;;
11691;SDS011;33659;42.672;23.354;2023-08-20T13:16:03;2.97;;;2.67;;
11691;SDS011;33659;42.672;23.354;2023-08-20T13:18:32;3.70;;;2.70;;
11691;SDS011;33659;42.672;23.354;2023-08-20T13:21:00;3.28;;;2.88;;
11691;SDS011;33659;42.672;23.354;2023-08-20T13:23:29;6.78;;;3.78;;
11691;SDS011;33659;42.672;23.354;2023-08-20T13:25:55;4.72;;;3.05;;
11691;SDS011;33659;42.672;23.354;2023-08-20T13:28:22;3.30;;;3.00;;
11691;SDS011;33659;42.672;23.354;2023-08-20T13:30:49;4.13;;;2.80;;
11691;SDS011;33659;42.672;23.354;2023-08-20T13:33:15;4.18;;;2.90;;
11691;SDS011;33659;42.672;23.354;2023-08-20T13:35:43;2.78;;;2.58;;
11691;SDS011;33659;42.672;23.354;2023-08-20T13:38:11;2.75;;;2.55;;
11691;SDS011;33659;42.672;23.354;2023-08-20T13:40:38;2.92;;;2.45;;
11691;SDS011;33659;42.672;23.354;2023-08-20T13:43:04;2.95;;;2.67;;
11691;SDS011;33659;42.672;23.354;2023-08-20T13:45:31;3.75;;;3.03;;
11691;SDS011;33659;42.672;23.354;2023-08-20T13:47:58;3.55;;;2.90;;
11691;SDS011;33659;42.672;23.354;2023-08-20T13:50:24;3.45;;;2.78;;
11691;SDS011;33659;42.672;23.354;2023-08-20T13:52:52;3.75;;;2.47;;
11691;SDS011;33659;42.672;23.354;2023-08-20T13:55:20;4.45;;;2.70;;
11691;SDS011;33659;42.672;23.354;2023-08-20T13:57:47;3.90;;;2.30;;
11691;SDS011;33659;42.672;23.354;2023-08-20T14:00:14;2.90;;;2.70;;
11691;SDS011;33659;42.672;23.354;2023-08-20T14:02:41;4.93;;;2.53;;
11691;SDS011;33659;42.672;23.354;2023-08-20T14:05:08;3.60;;;2.63;;
11691;SDS011;33659;42.672;23.354;2023-08-20T14:07:35;2.92;;;2.67;;
11691;SDS011;33659;42.672;23.354;2023-08-20T14:10:03;3.03;;;2.80;;
11691;SDS011;33659;42.672;23.354;2023-08-20T14:12:33;3.28;;;2.50;;
11691;SDS011;33659;42.672;23.354;2023-08-20T14:15:00;3.42;;;2.50;;
11691;SDS011;33659;42.672;23.354;2023-08-20T14:17:27;2.90;;;2.63;;
11691;SDS011;33659;42.672;23.354;2023-08-20T14:19:54;4.47;;;2.85;;
11691;SDS011;33659;42.672;23.354;2023-08-20T14:22:21;4.00;;;2.97;;
11691;SDS011;33659;42.672;23.354;2023-08-20T14:24:47;4.97;;;2.38;;
11691;SDS011;33659;42.672;23.354;2023-08-20T14:27:15;3.60;;;2.60;;
11691;SDS011;33659;42.672;23.354;2023-08-20T14:29:42;4.75;;;2.40;;
11691;SDS011;33659;42.672;23.354;2023-08-20T14:32:09;3.55;;;2.85;;
11691;SDS011;33659;42.672;23.354;2023-08-20T14:34:36;4.05;;;2.65;;
11691;SDS011;33659;42.672;23.354;2023-08-20T14:37:03;3.10;;;2.80;;
11691;SDS011;33659;42.672;23.354;2023-08-20T14:39:30;3.03;;;2.80;;
11691;SDS011;33659;42.672;23.354;2023-08-20T14:41:57;3.20;;;2.53;;